Picture Butte, Canada
Current Conditions -  °F | °C
As of 1:00 PM on Thursday 29 Jan 2015 (Local Time) from CYQL Reporting Station
Scattered Clouds Scattered Clouds  
Wind Chill: 11°   Ceiling: Unl
Heat Index: 11°   Visibility: 40mi
Dew Point: -7°   Wind: 16mph
Humidity: 28%   Direction: 250°WSW
Pressure: 30.18"   Gusts: NA
Location:  49.87°N, 112.78°W
Report Text: CYQL 292000Z 25014KT 40SM FEW130 SCT280 11/M07 A3018 RMK AC1CI2 SLP247
Loading
Personal Weather Stations






























Interactive Weather Map New forecast layout! Learn more

10-Day Weather Forecast

Advertisements
Track Severe Weather on mobile